createdAt,value
2023-05-14T00:01:02.294Z,11.13
2023-05-14T00:03:28.984Z,11.57
2023-05-14T00:05:55.525Z,11.57
2023-05-14T00:08:22.053Z,11.60
2023-05-14T00:10:48.609Z,11.27
2023-05-14T00:13:15.534Z,11.13
2023-05-14T00:15:42.118Z,11.48
2023-05-14T00:18:12.037Z,12.68
2023-05-14T00:20:38.626Z,12.07
2023-05-14T00:23:05.186Z,12.35
2023-05-14T00:25:31.740Z,12.40
2023-05-14T00:27:58.231Z,12.32
2023-05-14T00:30:24.996Z,12.55
2023-05-14T00:32:51.726Z,12.85
2023-05-14T00:35:18.362Z,13.20
2023-05-14T00:37:44.833Z,12.90
2023-05-14T00:40:12.940Z,13.32
2023-05-14T00:42:40.584Z,13.70
2023-05-14T00:45:07.670Z,13.55
2023-05-14T00:47:34.869Z,13.85
2023-05-14T00:50:03.530Z,13.38
2023-05-14T00:52:30.105Z,13.70
2023-05-14T00:54:57.071Z,14.10
2023-05-14T00:57:23.659Z,14.05
2023-05-14T00:59:50.737Z,14.30
2023-05-14T01:02:17.318Z,14.57
2023-05-14T01:04:43.928Z,14.48
2023-05-14T01:07:34.485Z,14.85
2023-05-14T01:10:06.587Z,15.00
2023-05-14T01:12:52.890Z,15.48
2023-05-14T01:15:28.650Z,15.07
2023-05-14T01:18:01.708Z,15.65
2023-05-14T01:20:28.291Z,15.48
2023-05-14T01:22:54.796Z,15.25
2023-05-14T01:25:21.315Z,15.38
2023-05-14T01:28:10.985Z,15.45
2023-05-14T01:30:58.351Z,15.50
2023-05-14T01:33:27.578Z,15.98
2023-05-14T01:35:55.355Z,16.33
2023-05-14T01:38:23.449Z,15.30
2023-05-14T01:40:50.825Z,15.60
2023-05-14T01:43:17.747Z,16.33
2023-05-14T01:45:44.527Z,16.17
2023-05-14T01:48:11.273Z,15.85
2023-05-14T01:50:37.940Z,16.02
2023-05-14T01:53:04.614Z,16.70
2023-05-14T01:55:31.272Z,16.20
2023-05-14T01:57:57.822Z,16.17
2023-05-14T02:00:27.679Z,16.45
2023-05-14T02:02:54.423Z,15.98
2023-05-14T02:05:23.038Z,16.00
2023-05-14T02:07:49.525Z,17.02
2023-05-14T02:10:16.143Z,16.63
2023-05-14T02:12:42.703Z,15.98
2023-05-14T02:15:10.983Z,17.65
2023-05-14T02:17:38.157Z,16.45
2023-05-14T02:20:05.469Z,16.75
2023-05-14T02:22:32.158Z,16.58
2023-05-14T02:24:58.845Z,17.15
2023-05-14T02:27:25.385Z,17.33
2023-05-14T02:29:52.881Z,17.45
2023-05-14T02:32:19.464Z,17.92
2023-05-14T02:34:45.969Z,18.00
2023-05-14T02:37:12.678Z,17.70
2023-05-14T02:39:39.158Z,18.17
2023-05-14T02:42:06.990Z,18.30
2023-05-14T02:44:33.606Z,18.23
2023-05-14T02:47:00.211Z,18.38
2023-05-14T02:49:26.744Z,18.15
2023-05-14T02:51:54.386Z,18.55
2023-05-14T02:54:20.974Z,18.48
2023-05-14T02:56:47.590Z,17.88
2023-05-14T02:59:14.439Z,19.05
2023-05-14T03:01:41.604Z,19.77
2023-05-14T03:04:08.718Z,18.55
2023-05-14T03:06:35.355Z,18.92
2023-05-14T03:09:01.865Z,19.10
2023-05-14T03:11:28.480Z,19.40
2023-05-14T03:13:55.093Z,19.52
2023-05-14T03:16:21.635Z,19.17
2023-05-14T03:18:48.250Z,18.85
2023-05-14T03:21:14.827Z,19.42
2023-05-14T03:23:41.499Z,18.73
2023-05-14T03:26:08.382Z,19.13
2023-05-14T03:28:34.875Z,19.92
2023-05-14T03:31:01.593Z,19.75
2023-05-14T03:33:28.318Z,20.35
2023-05-14T03:35:54.798Z,19.55
2023-05-14T03:38:21.403Z,19.45
2023-05-14T03:40:47.895Z,19.27
2023-05-14T03:43:14.594Z,18.77
2023-05-14T03:45:41.358Z,20.52
2023-05-14T03:48:08.202Z,20.15
2023-05-14T03:50:35.098Z,19.92
2023-05-14T03:53:01.710Z,19.40
2023-05-14T03:55:29.997Z,19.88
2023-05-14T03:57:56.570Z,21.88
2023-05-14T04:00:23.462Z,20.45
2023-05-14T04:02:52.215Z,21.05
2023-05-14T04:05:18.792Z,21.33
2023-05-14T04:07:46.159Z,21.17
2023-05-14T04:10:13.808Z,21.05
2023-05-14T04:12:40.287Z,20.45
2023-05-14T04:15:08.373Z,21.13
2023-05-14T04:17:35.371Z,20.73
2023-05-14T04:20:01.895Z,20.70
2023-05-14T04:22:28.448Z,20.30
2023-05-14T04:24:54.940Z,20.48
2023-05-14T04:27:21.648Z,20.33
2023-05-14T04:29:49.271Z,19.27
2023-05-14T04:32:15.765Z,19.55
2023-05-14T04:34:42.424Z,20.02
2023-05-14T04:37:08.921Z,19.42
2023-05-14T04:39:35.486Z,19.15
2023-05-14T04:42:02.014Z,19.67
2023-05-14T04:44:28.625Z,19.52
2023-05-14T04:46:55.648Z,19.23
2023-05-14T04:49:22.320Z,18.15
2023-05-14T04:51:49.351Z,18.75
2023-05-14T04:54:15.890Z,18.67
2023-05-14T04:56:42.438Z,18.00
2023-05-14T04:59:09.015Z,17.98
2023-05-14T05:01:35.637Z,18.05
2023-05-14T05:04:02.277Z,17.80
2023-05-14T05:06:28.829Z,18.02
2023-05-14T05:08:55.724Z,17.98
2023-05-14T05:11:22.269Z,18.70
2023-05-14T05:13:48.764Z,17.45
2023-05-14T05:16:15.626Z,17.90
2023-05-14T05:18:42.279Z,17.92
2023-05-14T05:21:08.766Z,18.50
2023-05-14T05:23:35.348Z,17.20
2023-05-14T05:26:01.908Z,18.13
2023-05-14T05:28:28.446Z,17.45
2023-05-14T05:30:55.178Z,18.15
2023-05-14T05:33:21.821Z,18.10
2023-05-14T05:35:48.776Z,17.90
2023-05-14T05:38:15.645Z,17.85
2023-05-14T05:40:42.129Z,17.75
2023-05-14T05:43:08.625Z,17.55
2023-05-14T05:45:35.068Z,18.02
2023-05-14T05:48:01.643Z,17.77
2023-05-14T05:50:28.174Z,18.05
2023-05-14T05:52:54.651Z,18.27
2023-05-14T05:55:21.284Z,18.33
2023-05-14T05:57:47.872Z,18.60
2023-05-14T06:00:15.094Z,17.30
2023-05-14T06:02:41.818Z,17.70
2023-05-14T06:05:10.195Z,17.90
2023-05-14T06:07:36.782Z,17.67
2023-05-14T06:10:03.524Z,18.85
2023-05-14T06:12:30.063Z,17.27
2023-05-14T06:14:57.831Z,18.48
2023-05-14T06:17:25.137Z,17.75
2023-05-14T06:19:52.237Z,18.33
2023-05-14T06:22:19.195Z,18.67
2023-05-14T06:24:45.843Z,18.13
2023-05-14T06:27:12.342Z,17.85
2023-05-14T06:29:38.991Z,18.23
2023-05-14T06:32:05.941Z,18.35
2023-05-14T06:34:32.526Z,18.48
2023-05-14T06:36:59.135Z,18.08
2023-05-14T06:39:25.715Z,17.08
2023-05-14T06:41:52.294Z,18.08
2023-05-14T06:44:19.552Z,18.00
2023-05-14T06:46:46.097Z,17.83
2023-05-14T06:49:12.656Z,17.25
2023-05-14T06:51:40.634Z,17.60
2023-05-14T06:54:07.155Z,16.98
2023-05-14T06:56:33.641Z,18.00
2023-05-14T06:59:00.228Z,17.40
2023-05-14T07:01:26.819Z,16.90
2023-05-14T07:03:53.458Z,18.02
2023-05-14T07:06:20.339Z,17.77
2023-05-14T07:08:46.962Z,18.30
2023-05-14T07:11:13.578Z,17.77
2023-05-14T07:13:40.712Z,17.98
2023-05-14T07:16:10.135Z,18.00
2023-05-14T07:18:36.829Z,18.38
2023-05-14T07:21:06.407Z,17.10
2023-05-14T07:23:36.224Z,17.58
2023-05-14T07:26:03.329Z,17.63
2023-05-14T07:28:29.811Z,16.88
2023-05-14T07:30:56.381Z,17.92
2023-05-14T07:33:24.605Z,17.77
2023-05-14T07:35:51.447Z,16.90
2023-05-14T07:38:19.068Z,17.10
2023-05-14T07:40:45.916Z,16.98
2023-05-14T07:43:12.771Z,17.15
2023-05-14T07:45:39.418Z,17.42
2023-05-14T07:48:06.449Z,17.00
2023-05-14T07:50:33.169Z,17.13
2023-05-14T07:52:59.720Z,16.73
2023-05-14T07:55:26.231Z,16.70
2023-05-14T07:57:52.768Z,16.13
2023-05-14T08:00:19.401Z,16.35
2023-05-14T08:02:46.198Z,16.05
2023-05-14T08:05:12.877Z,16.50
2023-05-14T08:07:39.412Z,16.63
2023-05-14T08:10:07.709Z,16.33
2023-05-14T08:12:34.305Z,16.10
2023-05-14T08:15:00.807Z,16.08
2023-05-14T08:17:27.369Z,16.45
2023-05-14T08:19:54.163Z,16.40
2023-05-14T08:22:21.716Z,15.55
2023-05-14T08:24:48.786Z,15.27
2023-05-14T08:27:16.623Z,15.45
2023-05-14T08:29:43.201Z,15.05
2023-05-14T08:32:22.211Z,15.95
2023-05-14T08:34:49.706Z,14.70
2023-05-14T08:37:16.239Z,15.05
2023-05-14T08:39:42.771Z,14.68
2023-05-14T08:42:13.051Z,15.02
2023-05-14T08:44:52.484Z,15.48
2023-05-14T08:47:21.946Z,14.60
2023-05-14T08:50:02.476Z,14.00
2023-05-14T08:52:29.108Z,13.20
2023-05-14T08:54:57.258Z,14.48
2023-05-14T08:57:26.478Z,14.35
2023-05-14T08:59:53.779Z,14.35
2023-05-14T09:02:27.548Z,14.55
2023-05-14T09:05:01.385Z,14.32
2023-05-14T09:07:28.079Z,13.65
2023-05-14T09:09:55.401Z,13.63
2023-05-14T09:12:22.446Z,13.82
2023-05-14T09:14:50.029Z,14.07
2023-05-14T09:17:17.485Z,13.57
2023-05-14T09:19:47.242Z,13.15
2023-05-14T09:22:15.968Z,13.15
2023-05-14T09:24:42.932Z,12.82
2023-05-14T09:27:15.221Z,13.32
2023-05-14T09:29:41.698Z,12.90
2023-05-14T09:32:10.202Z,12.77
2023-05-14T09:34:39.504Z,12.95
2023-05-14T09:37:08.580Z,12.55
2023-05-14T09:39:37.229Z,12.35
2023-05-14T09:42:04.720Z,12.60
2023-05-14T09:44:31.902Z,12.90
2023-05-14T09:46:58.562Z,12.90
2023-05-14T09:49:25.175Z,12.82
2023-05-14T09:51:51.656Z,12.65
2023-05-14T09:54:18.326Z,12.00
2023-05-14T09:56:44.950Z,11.40
2023-05-14T09:59:11.608Z,11.82
2023-05-14T10:01:38.691Z,11.25
2023-05-14T10:04:09.280Z,11.52
2023-05-14T10:06:39.829Z,11.35
2023-05-14T10:09:12.940Z,10.32
2023-05-14T10:11:44.135Z,10.63
2023-05-14T10:14:24.891Z,11.10
2023-05-14T10:16:53.105Z,10.95
2023-05-14T10:19:23.754Z,11.20
2023-05-14T10:21:57.266Z,11.00
2023-05-14T10:24:25.604Z,10.88
2023-05-14T10:26:52.785Z,10.85
2023-05-14T10:29:19.311Z,10.65
2023-05-14T10:31:47.407Z,10.27
2023-05-14T10:34:40.625Z,10.90
2023-05-14T10:37:18.942Z,9.95
2023-05-14T10:39:45.461Z,10.27
2023-05-14T10:42:16.441Z,10.45
2023-05-14T10:44:53.406Z,10.30
2023-05-14T10:47:20.449Z,10.13
2023-05-14T10:49:50.604Z,10.02
2023-05-14T10:52:21.002Z,9.77
2023-05-14T10:54:51.775Z,9.65
2023-05-14T10:57:19.445Z,9.90
2023-05-14T10:59:47.878Z,9.65
2023-05-14T11:02:31.715Z,8.95
2023-05-14T11:05:08.133Z,8.88
2023-05-14T11:07:45.927Z,8.60
2023-05-14T11:10:14.517Z,9.10
2023-05-14T11:12:43.860Z,8.60
2023-05-14T11:15:16.159Z,8.88
2023-05-14T11:17:43.873Z,9.05
2023-05-14T11:20:11.808Z,7.68
2023-05-14T11:22:39.550Z,8.55
2023-05-14T11:25:07.221Z,8.23
2023-05-14T11:27:35.870Z,8.10
2023-05-14T11:30:03.845Z,8.27
2023-05-14T11:32:32.666Z,9.00
2023-05-14T11:34:59.180Z,8.60
2023-05-14T11:37:25.752Z,8.73
2023-05-14T11:39:56.462Z,8.70
2023-05-14T11:42:23.697Z,8.57
2023-05-14T11:44:51.830Z,8.40
2023-05-14T11:47:20.648Z,8.80
2023-05-14T11:49:48.495Z,8.73
2023-05-14T11:52:16.484Z,8.27
2023-05-14T11:54:44.097Z,8.02
2023-05-14T11:57:12.853Z,8.05
2023-05-14T11:59:39.994Z,8.38
2023-05-14T12:02:11.680Z,8.20
2023-05-14T12:04:38.689Z,8.77
2023-05-14T12:07:13.493Z,7.90
2023-05-14T12:09:49.690Z,8.10
2023-05-14T12:12:19.257Z,8.55
2023-05-14T12:14:45.790Z,8.80
2023-05-14T12:17:19.671Z,8.68
2023-05-14T12:19:48.325Z,8.10
2023-05-14T12:22:17.527Z,7.97
2023-05-14T12:24:52.323Z,7.93
2023-05-14T12:27:22.444Z,7.40
2023-05-14T12:29:48.929Z,7.55
2023-05-14T12:32:15.576Z,7.78
2023-05-14T12:34:42.100Z,7.80
2023-05-14T12:37:08.640Z,7.90
2023-05-14T12:39:35.606Z,7.97
2023-05-14T12:42:02.264Z,7.30
2023-05-14T12:44:29.094Z,7.03
2023-05-14T12:46:55.815Z,7.20
2023-05-14T12:49:22.433Z,6.90
2023-05-14T12:51:51.178Z,6.95
2023-05-14T12:54:19.302Z,7.05
2023-05-14T12:56:45.928Z,6.85
2023-05-14T12:59:12.447Z,7.00
2023-05-14T13:01:38.970Z,7.10
2023-05-14T13:04:05.678Z,6.75
2023-05-14T13:06:32.570Z,6.65
2023-05-14T13:09:01.660Z,7.05
2023-05-14T13:11:30.290Z,7.43
2023-05-14T13:13:56.908Z,7.28
2023-05-14T13:16:23.538Z,7.22
2023-05-14T13:18:50.165Z,7.05
2023-05-14T13:21:16.665Z,6.95
2023-05-14T13:23:43.176Z,7.13
2023-05-14T13:26:09.855Z,7.40
2023-05-14T13:28:36.371Z,6.88
2023-05-14T13:31:06.281Z,7.38
2023-05-14T13:33:34.756Z,7.15
2023-05-14T13:36:01.574Z,7.22
2023-05-14T13:38:28.162Z,7.22
2023-05-14T13:40:57.188Z,7.22
2023-05-14T13:43:23.868Z,7.60
2023-05-14T13:45:51.082Z,7.63
2023-05-14T13:48:17.748Z,7.65
2023-05-14T13:50:44.275Z,7.85
2023-05-14T13:53:10.850Z,7.97
2023-05-14T13:55:37.405Z,7.60
2023-05-14T13:58:04.766Z,7.97
2023-05-14T14:00:31.271Z,7.68
2023-05-14T14:02:57.987Z,7.55
2023-05-14T14:05:28.262Z,7.80
2023-05-14T14:08:00.865Z,7.28
2023-05-14T14:10:34.685Z,7.10
2023-05-14T14:13:01.165Z,7.00
2023-05-14T14:15:27.656Z,7.43
2023-05-14T14:17:54.352Z,7.22
2023-05-14T14:20:20.843Z,7.28
2023-05-14T14:22:47.406Z,7.05
2023-05-14T14:25:13.937Z,6.85
2023-05-14T14:27:40.883Z,7.40
2023-05-14T14:30:15.866Z,7.05
2023-05-14T14:32:44.461Z,7.03
2023-05-14T14:35:12.376Z,7.47
2023-05-14T14:37:39.030Z,7.30
2023-05-14T14:40:10.256Z,6.97
2023-05-14T14:42:37.757Z,6.45
2023-05-14T14:45:05.417Z,7.20
2023-05-14T14:47:32.083Z,6.82
2023-05-14T14:49:58.981Z,7.10
2023-05-14T14:52:26.253Z,7.20
2023-05-14T14:54:53.942Z,7.43
2023-05-14T14:57:21.498Z,7.65
2023-05-14T14:59:48.958Z,7.45
2023-05-14T15:02:15.658Z,7.18
2023-05-14T15:04:42.186Z,7.70
2023-05-14T15:07:08.689Z,7.80
2023-05-14T15:09:35.501Z,7.35
2023-05-14T15:12:02.089Z,7.20
2023-05-14T15:14:28.651Z,7.72
2023-05-14T15:16:55.429Z,7.30
2023-05-14T15:19:22.038Z,7.07
2023-05-14T15:21:48.604Z,6.97
2023-05-14T15:24:15.131Z,6.85
2023-05-14T15:26:41.949Z,6.70
2023-05-14T15:29:08.524Z,6.72
2023-05-14T15:31:35.052Z,6.55
2023-05-14T15:34:01.598Z,6.63
2023-05-14T15:36:28.634Z,6.70
2023-05-14T15:38:55.400Z,6.40
2023-05-14T15:41:22.716Z,6.50
2023-05-14T15:43:49.233Z,6.18
2023-05-14T15:46:15.776Z,6.25
2023-05-14T15:48:42.310Z,6.70
2023-05-14T15:51:08.811Z,6.50
2023-05-14T15:53:35.410Z,6.57
2023-05-14T15:56:02.760Z,6.60
2023-05-14T15:58:29.263Z,6.30
2023-05-14T16:00:56.066Z,6.28
2023-05-14T16:03:22.670Z,6.30
2023-05-14T16:05:49.298Z,6.90
2023-05-14T16:08:15.801Z,6.47
2023-05-14T16:10:42.338Z,6.43
2023-05-14T16:13:08.811Z,6.43
2023-05-14T16:15:35.552Z,6.47
2023-05-14T16:18:02.204Z,6.63
2023-05-14T16:20:28.779Z,6.90
2023-05-14T16:22:55.376Z,7.15
2023-05-14T16:25:21.854Z,6.78
2023-05-14T16:27:48.418Z,7.07
2023-05-14T16:30:15.045Z,6.80
2023-05-14T16:32:42.163Z,7.10
2023-05-14T16:35:09.894Z,6.25
2023-05-14T16:37:36.413Z,6.40
2023-05-14T16:40:03.169Z,6.88
2023-05-14T16:42:29.640Z,7.07
2023-05-14T16:44:56.121Z,7.13
2023-05-14T16:47:22.676Z,7.20
2023-05-14T16:49:49.190Z,7.78
2023-05-14T16:52:15.676Z,8.07
2023-05-14T16:54:42.141Z,7.72
2023-05-14T16:57:08.624Z,8.07
2023-05-14T16:59:35.328Z,8.50
2023-05-14T17:02:01.874Z,8.02
2023-05-14T17:04:28.481Z,8.85
2023-05-14T17:06:57.257Z,9.13
2023-05-14T17:09:23.833Z,9.32
2023-05-14T17:11:50.772Z,10.38
2023-05-14T17:14:17.325Z,10.80
2023-05-14T17:16:43.965Z,12.10
2023-05-14T17:19:10.995Z,11.02
2023-05-14T17:21:37.680Z,10.68
2023-05-14T17:24:04.261Z,10.77
2023-05-14T17:26:30.786Z,10.65
2023-05-14T17:28:57.281Z,11.05
2023-05-14T17:31:23.947Z,11.07
2023-05-14T17:33:50.613Z,11.52
2023-05-14T17:36:17.176Z,11.77
2023-05-14T17:38:43.695Z,11.82
2023-05-14T17:41:10.180Z,12.73
2023-05-14T17:43:36.689Z,13.00
2023-05-14T17:46:03.591Z,13.48
2023-05-14T17:48:30.194Z,13.18
2023-05-14T17:50:56.742Z,13.68
2023-05-14T17:53:23.309Z,13.25
2023-05-14T17:55:50.115Z,13.00
2023-05-14T17:58:16.710Z,13.60
2023-05-14T18:00:44.020Z,13.02
2023-05-14T18:03:11.217Z,12.50
2023-05-14T18:05:37.928Z,13.30
2023-05-14T18:08:04.589Z,12.70
2023-05-14T18:10:31.176Z,13.40
2023-05-14T18:12:57.725Z,12.52
2023-05-14T18:15:25.683Z,13.60
2023-05-14T18:17:52.879Z,12.60
2023-05-14T18:20:19.894Z,13.23
2023-05-14T18:22:46.443Z,13.27
2023-05-14T18:25:13.612Z,12.77
2023-05-14T18:27:44.310Z,13.02
2023-05-14T18:30:15.315Z,12.70
2023-05-14T18:32:44.163Z,13.52
2023-05-14T18:35:12.092Z,13.00
2023-05-14T18:37:38.706Z,12.80
2023-05-14T18:40:06.917Z,13.20
2023-05-14T18:42:34.032Z,12.90
2023-05-14T18:45:00.655Z,13.10
2023-05-14T18:47:27.449Z,12.95
2023-05-14T18:49:55.777Z,13.23
2023-05-14T18:52:22.933Z,13.40
2023-05-14T18:54:50.554Z,13.23
2023-05-14T18:57:17.199Z,12.73
2023-05-14T18:59:43.690Z,13.07
2023-05-14T19:02:10.210Z,12.77
2023-05-14T19:04:50.754Z,13.70
2023-05-14T19:07:18.835Z,13.20
2023-05-14T19:09:45.448Z,13.32
2023-05-14T19:12:12.341Z,12.93
2023-05-14T19:14:38.865Z,12.43
2023-05-14T19:17:05.718Z,12.23
2023-05-14T19:19:32.625Z,12.35
2023-05-14T19:21:59.128Z,12.20
2023-05-14T19:24:25.836Z,12.40
2023-05-14T19:26:52.682Z,12.75
2023-05-14T19:29:19.296Z,12.48
2023-05-14T19:31:45.939Z,12.90
2023-05-14T19:34:12.508Z,12.57
2023-05-14T19:36:38.989Z,12.50
2023-05-14T19:39:05.910Z,12.55
2023-05-14T19:41:32.489Z,12.65
2023-05-14T19:43:59.004Z,13.15
2023-05-14T19:46:26.135Z,12.70
2023-05-14T19:48:52.831Z,12.60
2023-05-14T19:51:19.365Z,13.07
2023-05-14T19:53:45.985Z,12.52
2023-05-14T19:56:12.511Z,12.32
2023-05-14T19:58:39.295Z,13.00
2023-05-14T20:01:05.869Z,12.48
2023-05-14T20:03:33.428Z,12.63
2023-05-14T20:06:00.148Z,12.95
2023-05-14T20:08:26.783Z,12.55
2023-05-14T20:10:53.313Z,13.40
2023-05-14T20:13:19.918Z,13.50
2023-05-14T20:15:46.685Z,14.15
2023-05-14T20:18:13.362Z,13.95
2023-05-14T20:20:40.000Z,14.07
2023-05-14T20:23:06.551Z,13.82
2023-05-14T20:25:33.336Z,14.43
2023-05-14T20:28:00.734Z,14.45
2023-05-14T20:30:28.047Z,13.88
2023-05-14T20:32:54.905Z,13.85
2023-05-14T20:35:21.494Z,13.93
2023-05-14T20:37:49.405Z,14.05
2023-05-14T20:40:16.008Z,14.20
2023-05-14T20:42:42.574Z,14.27
2023-05-14T20:45:10.628Z,14.43
2023-05-14T20:47:37.358Z,14.40
2023-05-14T20:50:04.666Z,14.65
2023-05-14T20:52:31.230Z,14.70
2023-05-14T20:54:59.428Z,14.45
2023-05-14T20:57:28.295Z,14.52
2023-05-14T20:59:54.888Z,15.15
2023-05-14T21:02:21.548Z,14.43
2023-05-14T21:04:48.208Z,15.07
2023-05-14T21:07:14.872Z,15.00
2023-05-14T21:09:41.925Z,14.75
2023-05-14T21:12:08.790Z,15.27
2023-05-14T21:14:35.492Z,14.93
2023-05-14T21:17:02.137Z,15.25
2023-05-14T21:19:28.669Z,15.88
2023-05-14T21:21:55.334Z,15.02
2023-05-14T21:24:21.931Z,15.70
2023-05-14T21:26:48.503Z,15.98
2023-05-14T21:29:15.057Z,14.90
2023-05-14T21:31:41.643Z,15.63
2023-05-14T21:34:08.159Z,15.30
2023-05-14T21:36:34.734Z,16.15
2023-05-14T21:39:01.299Z,14.90
2023-05-14T21:41:27.843Z,15.77
2023-05-14T21:43:54.377Z,15.75
2023-05-14T21:46:21.104Z,15.88
2023-05-14T21:48:47.736Z,15.88
2023-05-14T21:51:14.506Z,15.70
2023-05-14T21:53:41.173Z,16.10
2023-05-14T21:56:08.253Z,16.05
2023-05-14T21:58:35.634Z,16.05
2023-05-14T22:01:02.260Z,15.93
2023-05-14T22:03:28.886Z,17.00
2023-05-14T22:05:56.164Z,17.83
2023-05-14T22:08:23.348Z,16.85
2023-05-14T22:10:49.831Z,17.02
2023-05-14T22:13:16.388Z,16.65
2023-05-14T22:15:43.006Z,17.23
2023-05-14T22:18:09.742Z,18.08
2023-05-14T22:20:36.303Z,18.15
2023-05-14T22:23:02.765Z,18.15
2023-05-14T22:25:29.319Z,17.85
2023-05-14T22:27:55.852Z,17.05
2023-05-14T22:30:22.353Z,17.83
2023-05-14T22:32:48.875Z,18.20
2023-05-14T22:35:15.606Z,17.42
2023-05-14T22:37:42.146Z,16.55
2023-05-14T22:40:09.105Z,16.55
2023-05-14T22:42:35.790Z,17.30
2023-05-14T22:45:02.394Z,16.58
2023-05-14T22:47:29.084Z,17.95
2023-05-14T22:49:55.647Z,17.58
2023-05-14T22:52:22.225Z,17.33
2023-05-14T22:54:51.033Z,17.35
2023-05-14T22:57:18.006Z,16.92
2023-05-14T22:59:44.517Z,17.33
2023-05-14T23:02:11.180Z,17.42
2023-05-14T23:04:37.819Z,17.58
2023-05-14T23:07:04.550Z,16.85
2023-05-14T23:09:31.078Z,18.05
2023-05-14T23:11:57.636Z,17.95
2023-05-14T23:14:24.211Z,18.30
2023-05-14T23:16:50.738Z,17.98
2023-05-14T23:19:17.349Z,17.45
2023-05-14T23:21:43.908Z,18.35
2023-05-14T23:24:10.486Z,18.92
2023-05-14T23:26:37.086Z,19.67
2023-05-14T23:29:03.657Z,19.40
2023-05-14T23:31:30.336Z,19.52
2023-05-14T23:33:57.280Z,19.60
2023-05-14T23:36:24.020Z,19.40
2023-05-14T23:38:51.225Z,20.38
2023-05-14T23:41:17.708Z,20.55
2023-05-14T23:43:44.230Z,21.85
2023-05-14T23:46:10.996Z,21.60
2023-05-14T23:48:37.620Z,21.52
2023-05-14T23:51:04.209Z,21.42
2023-05-14T23:53:30.688Z,21.40
2023-05-14T23:55:57.330Z,21.88
2023-05-14T23:58:23.932Z,21.83
